Creede, CO (81130)

1:35 PM MDT on July 28, 2016 (GMT -0600)
Blue Bird Lane | | Change Station

Elev 8907 ft 37.77 °N, 107.00 °W | Updated 21 seconds ago

Clear
Clear
79.3 °F
Feels Like 78 °F
N
9.2
Wind Variable Wind from WNW
Gusts 9.8 mph

Today
High -- | Low -- °F
--% Chance of Precip.
Yesterday
High -- | Low -- °F
Precip. -- in
Pressure 30.36 in
Visibility 10.0 miles
Clouds Clear
Heat Index 78 °F
Dew Point 18 °F
Humidity 10%
Rainfall 0.00 in
Snow Depth Not available.
6:08 AM 8:19 PM
Waning Crescent, 29% visible
METAR KPSO 281915Z AUTO 11003G08KT 10SM CLR 30/M01 A3036 RMK AO2 LTG DSNT SE T03031010
Pressure 30.36 in
Visibility 10.0 miles
Clouds Clear
Heat Index 78 °F
Dew Point 18 °F
Humidity 10%
Rainfall 0.00 in
Snow Depth Not available.
6:08 AM 8:19 PM
Waning Crescent, 29% visible
METAR KPSO 281915Z AUTO 11003G08KT 10SM CLR 30/M01 A3036 RMK AO2 LTG DSNT SE T03031010

10-Day Weather Forecast

Almanac

Astronomy

Jul. 28, 2016 Rise Set
Actual Time
Civil Twilight
Nautical Twilight
Astronomical Twilight
Moon
Length of Visible Light
Length of Day
Tomorrow will be .
, % of the Moon is Illuminated

Today's Extremes

State Highs State Lows

Community

WunderPhotos

Upload Photos

1,928,193 photos uploaded!

WunderBlog® & News

Nearby

Air Quality

  Air Quality AQ Index Pollutant
Not available.

Snow Depth

Station Depth Elevation

Earthquake Activity

City Distance Mag. Time & Date
Minimum magnitude displayed is 2.5.

Coastal Water Temperatures

Place Temperature

Stations

Nearby Weather Stations

Station Location Temp. Windchill Dew Point Humidity Wind Precip. Elev Updated Type
                   

Watches & Warnings

There are currently no watches in effect.